sensor_id;sensor_type;location;lat;lon;timestamp;temperature;humidity
77693;SHT31;66984;47.404;18.836;2023-06-14T00:00:34;14.93;67.43
77693;SHT31;66984;47.404;18.836;2023-06-14T00:01:46;14.88;67.57
77693;SHT31;66984;47.404;18.836;2023-06-14T00:02:50;14.90;67.31
77693;SHT31;66984;47.404;18.836;2023-06-14T00:03:53;14.84;67.63
77693;SHT31;66984;47.404;18.836;2023-06-14T00:04:57;14.81;68.09
77693;SHT31;66984;47.404;18.836;2023-06-14T00:06:29;14.85;68.13
77693;SHT31;66984;47.404;18.836;2023-06-14T00:07:40;14.90;67.99
77693;SHT31;66984;47.404;18.836;2023-06-14T00:08:46;14.91;67.55
77693;SHT31;66984;47.404;18.836;2023-06-14T00:09:49;14.93;66.86
77693;SHT31;66984;47.404;18.836;2023-06-14T00:10:52;14.94;66.47
77693;SHT31;66984;47.404;18.836;2023-06-14T00:12:02;14.94;66.26
77693;SHT31;66984;47.404;18.836;2023-06-14T00:13:10;14.94;66.16
77693;SHT31;66984;47.404;18.836;2023-06-14T00:14:16;14.94;66.45
77693;SHT31;66984;47.404;18.836;2023-06-14T00:15:19;14.95;66.73
77693;SHT31;66984;47.404;18.836;2023-06-14T00:16:23;14.98;66.95
77693;SHT31;66984;47.404;18.836;2023-06-14T00:17:33;15.03;67.75
77693;SHT31;66984;47.404;18.836;2023-06-14T00:18:36;15.05;67.70
77693;SHT31;66984;47.404;18.836;2023-06-14T00:19:47;15.08;67.57
77693;SHT31;66984;47.404;18.836;2023-06-14T00:20:50;15.07;67.72
77693;SHT31;66984;47.404;18.836;2023-06-14T00:21:54;15.10;67.84
77693;SHT31;66984;47.404;18.836;2023-06-14T00:22:57;15.08;67.82
77693;SHT31;66984;47.404;18.836;2023-06-14T00:24:00;15.05;67.65
77693;SHT31;66984;47.404;18.836;2023-06-14T00:25:10;15.08;67.99
77693;SHT31;66984;47.404;18.836;2023-06-14T00:26:29;15.11;67.88
77693;SHT31;66984;47.404;18.836;2023-06-14T00:27:32;15.11;67.65
77693;SHT31;66984;47.404;18.836;2023-06-14T00:28:35;15.12;67.77
77693;SHT31;66984;47.404;18.836;2023-06-14T00:29:38;15.07;67.71
77693;SHT31;66984;47.404;18.836;2023-06-14T00:30:48;15.07;67.50
77693;SHT31;66984;47.404;18.836;2023-06-14T00:31:51;15.10;67.43
77693;SHT31;66984;47.404;18.836;2023-06-14T00:32:53;15.11;68.04
77693;SHT31;66984;47.404;18.836;2023-06-14T00:33:57;15.04;67.87
77693;SHT31;66984;47.404;18.836;2023-06-14T00:35:00;15.04;67.86
77693;SHT31;66984;47.404;18.836;2023-06-14T00:36:10;15.03;67.92
77693;SHT31;66984;47.404;18.836;2023-06-14T00:37:13;15.04;67.97
77693;SHT31;66984;47.404;18.836;2023-06-14T00:38:16;15.04;67.95
77693;SHT31;66984;47.404;18.836;2023-06-14T00:39:19;15.03;67.91
77693;SHT31;66984;47.404;18.836;2023-06-14T00:40:22;14.98;67.88
77693;SHT31;66984;47.404;18.836;2023-06-14T00:41:32;15.00;67.90
77693;SHT31;66984;47.404;18.836;2023-06-14T00:42:35;15.00;67.44
77693;SHT31;66984;47.404;18.836;2023-06-14T00:43:38;15.03;67.17
77693;SHT31;66984;47.404;18.836;2023-06-14T00:44:40;15.04;67.29
77693;SHT31;66984;47.404;18.836;2023-06-14T00:45:43;15.04;67.21
77693;SHT31;66984;47.404;18.836;2023-06-14T00:46:53;15.08;67.44
77693;SHT31;66984;47.404;18.836;2023-06-14T00:47:56;15.08;67.35
77693;SHT31;66984;47.404;18.836;2023-06-14T00:49:00;15.11;67.21
77693;SHT31;66984;47.404;18.836;2023-06-14T00:50:06;15.14;67.25
77693;SHT31;66984;47.404;18.836;2023-06-14T00:51:10;15.11;67.48
77693;SHT31;66984;47.404;18.836;2023-06-14T00:52:20;15.18;67.50
77693;SHT31;66984;47.404;18.836;2023-06-14T00:53:23;15.17;67.53
77693;SHT31;66984;47.404;18.836;2023-06-14T00:54:48;15.18;67.74
77693;SHT31;66984;47.404;18.836;2023-06-14T00:55:52;15.20;67.98
77693;SHT31;66984;47.404;18.836;2023-06-14T00:56:55;15.24;68.07
77693;SHT31;66984;47.404;18.836;2023-06-14T00:58:06;15.22;68.06
77693;SHT31;66984;47.404;18.836;2023-06-14T00:59:09;15.28;67.92
77693;SHT31;66984;47.404;18.836;2023-06-14T01:00:20;15.21;68.34
77693;SHT31;66984;47.404;18.836;2023-06-14T01:01:38;15.24;68.18
77693;SHT31;66984;47.404;18.836;2023-06-14T01:02:48;15.22;68.15
77693;SHT31;66984;47.404;18.836;2023-06-14T01:03:52;15.24;67.82
77693;SHT31;66984;47.404;18.836;2023-06-14T01:04:55;15.24;67.93
77693;SHT31;66984;47.404;18.836;2023-06-14T01:06:27;15.24;68.08
77693;SHT31;66984;47.404;18.836;2023-06-14T01:07:51;15.21;68.37
77693;SHT31;66984;47.404;18.836;2023-06-14T01:09:27;15.22;68.56
77693;SHT31;66984;47.404;18.836;2023-06-14T01:12:07;15.21;68.48
77693;SHT31;66984;47.404;18.836;2023-06-14T01:13:29;15.20;68.67
77693;SHT31;66984;47.404;18.836;2023-06-14T01:14:34;15.20;68.66
77693;SHT31;66984;47.404;18.836;2023-06-14T01:15:38;15.14;68.91
77693;SHT31;66984;47.404;18.836;2023-06-14T01:16:48;15.12;68.98
77693;SHT31;66984;47.404;18.836;2023-06-14T01:17:55;15.11;69.06
77693;SHT31;66984;47.404;18.836;2023-06-14T01:19:05;15.11;69.03
77693;SHT31;66984;47.404;18.836;2023-06-14T01:20:11;15.10;69.40
77693;SHT31;66984;47.404;18.836;2023-06-14T01:21:21;15.12;69.38
77693;SHT31;66984;47.404;18.836;2023-06-14T01:22:32;15.14;69.14
77693;SHT31;66984;47.404;18.836;2023-06-14T01:23:55;15.11;69.07
77693;SHT31;66984;47.404;18.836;2023-06-14T01:25:05;15.14;69.21
77693;SHT31;66984;47.404;18.836;2023-06-14T01:26:09;15.12;69.52
77693;SHT31;66984;47.404;18.836;2023-06-14T01:27:13;15.12;69.65
77693;SHT31;66984;47.404;18.836;2023-06-14T01:28:27;15.18;69.59
77693;SHT31;66984;47.404;18.836;2023-06-14T01:29:34;15.15;69.52
77693;SHT31;66984;47.404;18.836;2023-06-14T01:30:41;15.15;69.43
77693;SHT31;66984;47.404;18.836;2023-06-14T01:31:48;15.14;69.32
77693;SHT31;66984;47.404;18.836;2023-06-14T01:32:53;15.17;69.54
77693;SHT31;66984;47.404;18.836;2023-06-14T01:34:04;15.20;69.61
77693;SHT31;66984;47.404;18.836;2023-06-14T01:35:07;15.17;69.62
77693;SHT31;66984;47.404;18.836;2023-06-14T01:36:11;15.20;69.80
77693;SHT31;66984;47.404;18.836;2023-06-14T01:37:15;15.20;69.92
77693;SHT31;66984;47.404;18.836;2023-06-14T01:38:27;15.17;69.91
77693;SHT31;66984;47.404;18.836;2023-06-14T01:39:30;15.14;70.12
77693;SHT31;66984;47.404;18.836;2023-06-14T01:40:34;15.12;70.32
77693;SHT31;66984;47.404;18.836;2023-06-14T01:41:58;15.12;70.42
77693;SHT31;66984;47.404;18.836;2023-06-14T01:43:22;15.15;70.45
77693;SHT31;66984;47.404;18.836;2023-06-14T01:44:34;15.20;70.38
77693;SHT31;66984;47.404;18.836;2023-06-14T01:45:40;15.21;70.54
77693;SHT31;66984;47.404;18.836;2023-06-14T01:46:45;15.20;70.64
77693;SHT31;66984;47.404;18.836;2023-06-14T01:47:48;15.22;70.48
77693;SHT31;66984;47.404;18.836;2023-06-14T01:48:59;15.21;70.55
77693;SHT31;66984;47.404;18.836;2023-06-14T01:50:05;15.21;70.66
77693;SHT31;66984;47.404;18.836;2023-06-14T01:51:08;15.22;70.66
77693;SHT31;66984;47.404;18.836;2023-06-14T01:52:11;15.20;70.83
77693;SHT31;66984;47.404;18.836;2023-06-14T01:53:14;15.20;70.91
77693;SHT31;66984;47.404;18.836;2023-06-14T01:54:24;15.20;70.79
77693;SHT31;66984;47.404;18.836;2023-06-14T01:55:28;15.17;71.00
77693;SHT31;66984;47.404;18.836;2023-06-14T01:56:31;15.21;70.96
77693;SHT31;66984;47.404;18.836;2023-06-14T01:57:35;15.18;70.93
77693;SHT31;66984;47.404;18.836;2023-06-14T01:58:38;15.24;70.98
77693;SHT31;66984;47.404;18.836;2023-06-14T01:59:48;15.22;71.12
77693;SHT31;66984;47.404;18.836;2023-06-14T02:00:59;15.25;71.00
77693;SHT31;66984;47.404;18.836;2023-06-14T02:02:16;15.20;70.96
77693;SHT31;66984;47.404;18.836;2023-06-14T02:03:19;15.20;71.02
77693;SHT31;66984;47.404;18.836;2023-06-14T02:04:22;15.20;71.01
77693;SHT31;66984;47.404;18.836;2023-06-14T02:05:32;15.18;71.11
77693;SHT31;66984;47.404;18.836;2023-06-14T02:06:37;15.21;71.12
77693;SHT31;66984;47.404;18.836;2023-06-14T02:07:40;15.20;71.58
77693;SHT31;66984;47.404;18.836;2023-06-14T02:08:43;15.18;71.53
77693;SHT31;66984;47.404;18.836;2023-06-14T02:09:46;15.21;71.52
77693;SHT31;66984;47.404;18.836;2023-06-14T02:10:56;15.20;71.48
77693;SHT31;66984;47.404;18.836;2023-06-14T02:11:59;15.21;71.53
77693;SHT31;66984;47.404;18.836;2023-06-14T02:13:02;15.20;71.64
77693;SHT31;66984;47.404;18.836;2023-06-14T02:14:05;15.18;71.85
77693;SHT31;66984;47.404;18.836;2023-06-14T02:15:29;15.20;71.87
77693;SHT31;66984;47.404;18.836;2023-06-14T02:16:50;15.18;71.79
77693;SHT31;66984;47.404;18.836;2023-06-14T02:18:03;15.21;71.82
77693;SHT31;66984;47.404;18.836;2023-06-14T02:19:06;15.18;72.03
77693;SHT31;66984;47.404;18.836;2023-06-14T02:20:10;15.15;72.15
77693;SHT31;66984;47.404;18.836;2023-06-14T02:21:19;15.14;72.37
77693;SHT31;66984;47.404;18.836;2023-06-14T02:22:22;15.14;72.36
77693;SHT31;66984;47.404;18.836;2023-06-14T02:23:26;15.14;72.29
77693;SHT31;66984;47.404;18.836;2023-06-14T02:24:28;15.15;72.24
77693;SHT31;66984;47.404;18.836;2023-06-14T02:25:31;15.12;72.42
77693;SHT31;66984;47.404;18.836;2023-06-14T02:26:41;15.12;72.41
77693;SHT31;66984;47.404;18.836;2023-06-14T02:27:44;15.12;72.39
77693;SHT31;66984;47.404;18.836;2023-06-14T02:28:48;15.14;72.58
77693;SHT31;66984;47.404;18.836;2023-06-14T02:29:50;15.15;72.58
77693;SHT31;66984;47.404;18.836;2023-06-14T02:30:53;15.12;72.61
77693;SHT31;66984;47.404;18.836;2023-06-14T02:32:06;15.17;72.62
77693;SHT31;66984;47.404;18.836;2023-06-14T02:33:10;15.14;72.52
77693;SHT31;66984;47.404;18.836;2023-06-14T02:34:15;15.15;72.67
77693;SHT31;66984;47.404;18.836;2023-06-14T02:35:22;15.17;72.50
77693;SHT31;66984;47.404;18.836;2023-06-14T02:36:29;15.15;72.54
77693;SHT31;66984;47.404;18.836;2023-06-14T02:37:41;15.17;72.65
77693;SHT31;66984;47.404;18.836;2023-06-14T02:38:45;15.15;72.65
77693;SHT31;66984;47.404;18.836;2023-06-14T02:39:49;15.14;72.78
77693;SHT31;66984;47.404;18.836;2023-06-14T02:40:52;15.12;72.87
77693;SHT31;66984;47.404;18.836;2023-06-14T02:41:55;15.11;72.85
77693;SHT31;66984;47.404;18.836;2023-06-14T02:43:05;15.10;72.92
77693;SHT31;66984;47.404;18.836;2023-06-14T02:44:09;15.10;72.95
77693;SHT31;66984;47.404;18.836;2023-06-14T02:45:14;15.10;72.88
77693;SHT31;66984;47.404;18.836;2023-06-14T02:46:17;15.08;72.92
77693;SHT31;66984;47.404;18.836;2023-06-14T02:47:21;15.05;73.07
77693;SHT31;66984;47.404;18.836;2023-06-14T02:48:30;15.08;73.01
77693;SHT31;66984;47.404;18.836;2023-06-14T02:49:33;15.07;73.15
77693;SHT31;66984;47.404;18.836;2023-06-14T02:50:36;15.03;73.34
77693;SHT31;66984;47.404;18.836;2023-06-14T02:51:39;15.04;73.49
77693;SHT31;66984;47.404;18.836;2023-06-14T02:52:43;15.01;73.55
77693;SHT31;66984;47.404;18.836;2023-06-14T02:53:53;15.00;73.61
77693;SHT31;66984;47.404;18.836;2023-06-14T02:54:56;14.98;73.76
77693;SHT31;66984;47.404;18.836;2023-06-14T02:55:59;14.98;73.72
77693;SHT31;66984;47.404;18.836;2023-06-14T02:57:02;15.00;73.59
77693;SHT31;66984;47.404;18.836;2023-06-14T02:58:06;15.03;73.56
77693;SHT31;66984;47.404;18.836;2023-06-14T02:59:15;15.04;73.57
77693;SHT31;66984;47.404;18.836;2023-06-14T03:00:20;15.05;73.51
77693;SHT31;66984;47.404;18.836;2023-06-14T03:01:29;15.01;73.65
77693;SHT31;66984;47.404;18.836;2023-06-14T03:02:50;15.00;73.88
77693;SHT31;66984;47.404;18.836;2023-06-14T03:04:01;14.98;73.83
77693;SHT31;66984;47.404;18.836;2023-06-14T03:05:06;15.00;73.60
77693;SHT31;66984;47.404;18.836;2023-06-14T03:06:09;15.03;73.66
77693;SHT31;66984;47.404;18.836;2023-06-14T03:07:16;15.04;73.82
77693;SHT31;66984;47.404;18.836;2023-06-14T03:08:22;15.04;73.69
77693;SHT31;66984;47.404;18.836;2023-06-14T03:09:36;15.05;73.72
77693;SHT31;66984;47.404;18.836;2023-06-14T03:10:40;15.03;73.75
77693;SHT31;66984;47.404;18.836;2023-06-14T03:11:43;15.00;73.90
77693;SHT31;66984;47.404;18.836;2023-06-14T03:13:02;15.03;74.00
77693;SHT31;66984;47.404;18.836;2023-06-14T03:14:13;15.00;74.08
77693;SHT31;66984;47.404;18.836;2023-06-14T03:15:16;14.97;74.20
77693;SHT31;66984;47.404;18.836;2023-06-14T03:16:20;14.98;74.20
77693;SHT31;66984;47.404;18.836;2023-06-14T03:17:24;14.93;74.21
77693;SHT31;66984;47.404;18.836;2023-06-14T03:18:32;14.94;74.31
77693;SHT31;66984;47.404;18.836;2023-06-14T03:19:44;14.94;74.26
77693;SHT31;66984;47.404;18.836;2023-06-14T03:21:07;15.03;74.00
77693;SHT31;66984;47.404;18.836;2023-06-14T03:22:11;15.01;73.81
77693;SHT31;66984;47.404;18.836;2023-06-14T03:23:14;15.01;73.90
77693;SHT31;66984;47.404;18.836;2023-06-14T03:24:17;15.03;74.02
77693;SHT31;66984;47.404;18.836;2023-06-14T03:25:28;15.03;73.83
77693;SHT31;66984;47.404;18.836;2023-06-14T03:26:33;15.03;73.74
77693;SHT31;66984;47.404;18.836;2023-06-14T03:27:36;15.04;73.75
77693;SHT31;66984;47.404;18.836;2023-06-14T03:28:41;15.07;73.58
77693;SHT31;66984;47.404;18.836;2023-06-14T03:29:44;15.07;73.61
77693;SHT31;66984;47.404;18.836;2023-06-14T03:30:54;15.08;73.50
77693;SHT31;66984;47.404;18.836;2023-06-14T03:32:00;15.12;73.44
77693;SHT31;66984;47.404;18.836;2023-06-14T03:33:03;15.08;73.51
77693;SHT31;66984;47.404;18.836;2023-06-14T03:34:08;15.11;73.44
77693;SHT31;66984;47.404;18.836;2023-06-14T03:35:11;15.08;73.57
77693;SHT31;66984;47.404;18.836;2023-06-14T03:36:26;15.08;73.66
77693;SHT31;66984;47.404;18.836;2023-06-14T03:37:30;15.07;73.61
77693;SHT31;66984;47.404;18.836;2023-06-14T03:38:33;15.07;73.62
77693;SHT31;66984;47.404;18.836;2023-06-14T03:39:37;15.04;73.86
77693;SHT31;66984;47.404;18.836;2023-06-14T03:40:40;15.05;73.75
77693;SHT31;66984;47.404;18.836;2023-06-14T03:41:50;15.04;73.76
77693;SHT31;66984;47.404;18.836;2023-06-14T03:42:54;15.07;73.79
77693;SHT31;66984;47.404;18.836;2023-06-14T03:43:57;15.08;73.66
77693;SHT31;66984;47.404;18.836;2023-06-14T03:45:01;15.08;73.73
77693;SHT31;66984;47.404;18.836;2023-06-14T03:46:23;15.08;73.75
77693;SHT31;66984;47.404;18.836;2023-06-14T03:47:41;15.10;73.78
77693;SHT31;66984;47.404;18.836;2023-06-14T03:49:04;15.11;73.69
77693;SHT31;66984;47.404;18.836;2023-06-14T03:50:16;15.10;73.65
77693;SHT31;66984;47.404;18.836;2023-06-14T03:51:40;15.07;73.98
77693;SHT31;66984;47.404;18.836;2023-06-14T03:52:43;15.10;74.11
77693;SHT31;66984;47.404;18.836;2023-06-14T03:53:46;15.12;73.97
77693;SHT31;66984;47.404;18.836;2023-06-14T03:55:09;15.12;73.87
77693;SHT31;66984;47.404;18.836;2023-06-14T03:56:16;15.14;73.80
77693;SHT31;66984;47.404;18.836;2023-06-14T03:57:25;15.15;73.76
77693;SHT31;66984;47.404;18.836;2023-06-14T03:58:28;15.14;74.03
77693;SHT31;66984;47.404;18.836;2023-06-14T03:59:31;15.10;74.03
77693;SHT31;66984;47.404;18.836;2023-06-14T04:00:34;15.08;74.01
77693;SHT31;66984;47.404;18.836;2023-06-14T04:01:44;15.14;74.07
77693;SHT31;66984;47.404;18.836;2023-06-14T04:03:02;15.12;74.13
77693;SHT31;66984;47.404;18.836;2023-06-14T04:04:12;15.14;74.06
77693;SHT31;66984;47.404;18.836;2023-06-14T04:05:15;15.12;74.21
77693;SHT31;66984;47.404;18.836;2023-06-14T04:06:19;15.15;74.12
77693;SHT31;66984;47.404;18.836;2023-06-14T04:07:22;15.17;74.14
77693;SHT31;66984;47.404;18.836;2023-06-14T04:08:33;15.20;74.07
77693;SHT31;66984;47.404;18.836;2023-06-14T04:09:36;15.20;74.06
77693;SHT31;66984;47.404;18.836;2023-06-14T04:10:39;15.21;73.96
77693;SHT31;66984;47.404;18.836;2023-06-14T04:11:42;15.27;73.85
77693;SHT31;66984;47.404;18.836;2023-06-14T04:12:44;15.27;73.79
77693;SHT31;66984;47.404;18.836;2023-06-14T04:13:54;15.27;74.07
77693;SHT31;66984;47.404;18.836;2023-06-14T04:14:59;15.32;73.98
77693;SHT31;66984;47.404;18.836;2023-06-14T04:16:20;15.28;73.88
77693;SHT31;66984;47.404;18.836;2023-06-14T04:17:23;15.31;73.81
77693;SHT31;66984;47.404;18.836;2023-06-14T04:18:33;15.32;74.02
77693;SHT31;66984;47.404;18.836;2023-06-14T04:19:36;15.36;73.84
77693;SHT31;66984;47.404;18.836;2023-06-14T04:20:39;15.36;73.71
77693;SHT31;66984;47.404;18.836;2023-06-14T04:21:43;15.41;73.91
77693;SHT31;66984;47.404;18.836;2023-06-14T04:22:46;15.41;73.60
77693;SHT31;66984;47.404;18.836;2023-06-14T04:23:55;15.38;73.80
77693;SHT31;66984;47.404;18.836;2023-06-14T04:25:03;15.41;73.62
77693;SHT31;66984;47.404;18.836;2023-06-14T04:26:06;15.42;74.12
77693;SHT31;66984;47.404;18.836;2023-06-14T04:27:09;15.43;73.96
77693;SHT31;66984;47.404;18.836;2023-06-14T04:28:13;15.48;73.28
77693;SHT31;66984;47.404;18.836;2023-06-14T04:29:25;15.48;73.37
77693;SHT31;66984;47.404;18.836;2023-06-14T04:30:29;15.53;73.31
77693;SHT31;66984;47.404;18.836;2023-06-14T04:31:34;15.58;73.40
77693;SHT31;66984;47.404;18.836;2023-06-14T04:32:40;15.58;73.66
77693;SHT31;66984;47.404;18.836;2023-06-14T04:33:43;15.61;74.02
77693;SHT31;66984;47.404;18.836;2023-06-14T04:34:53;15.67;73.91
77693;SHT31;66984;47.404;18.836;2023-06-14T04:35:56;15.70;73.44
77693;SHT31;66984;47.404;18.836;2023-06-14T04:37:00;15.74;72.99
77693;SHT31;66984;47.404;18.836;2023-06-14T04:38:03;15.73;72.88
77693;SHT31;66984;47.404;18.836;2023-06-14T04:39:19;15.79;72.52
77693;SHT31;66984;47.404;18.836;2023-06-14T04:40:24;15.80;72.42
77693;SHT31;66984;47.404;18.836;2023-06-14T04:41:26;15.85;72.70
77693;SHT31;66984;47.404;18.836;2023-06-14T04:42:33;15.86;72.60
77693;SHT31;66984;47.404;18.836;2023-06-14T04:43:36;15.86;72.21
77693;SHT31;66984;47.404;18.836;2023-06-14T04:44:46;15.89;72.34
77693;SHT31;66984;47.404;18.836;2023-06-14T04:45:52;15.90;71.99
77693;SHT31;66984;47.404;18.836;2023-06-14T04:46:57;15.91;72.01
77693;SHT31;66984;47.404;18.836;2023-06-14T04:48:01;15.96;72.04
77693;SHT31;66984;47.404;18.836;2023-06-14T04:49:04;15.96;72.12
77693;SHT31;66984;47.404;18.836;2023-06-14T04:50:13;15.97;72.05
77693;SHT31;66984;47.404;18.836;2023-06-14T04:51:19;16.00;71.91
77693;SHT31;66984;47.404;18.836;2023-06-14T04:52:24;15.99;72.52
77693;SHT31;66984;47.404;18.836;2023-06-14T04:53:29;16.04;72.11
77693;SHT31;66984;47.404;18.836;2023-06-14T04:54:32;16.01;72.12
77693;SHT31;66984;47.404;18.836;2023-06-14T04:55:42;16.04;72.01
77693;SHT31;66984;47.404;18.836;2023-06-14T04:56:47;16.09;71.79
77693;SHT31;66984;47.404;18.836;2023-06-14T04:57:53;16.09;71.73
77693;SHT31;66984;47.404;18.836;2023-06-14T04:58:56;16.11;71.70
77693;SHT31;66984;47.404;18.836;2023-06-14T05:00:06;16.13;71.71
77693;SHT31;66984;47.404;18.836;2023-06-14T05:01:16;16.17;71.76
77693;SHT31;66984;47.404;18.836;2023-06-14T05:02:25;16.16;71.21
77693;SHT31;66984;47.404;18.836;2023-06-14T05:03:41;16.16;71.19
77693;SHT31;66984;47.404;18.836;2023-06-14T05:04:47;16.14;71.48
77693;SHT31;66984;47.404;18.836;2023-06-14T05:05:56;16.14;71.55
77693;SHT31;66984;47.404;18.836;2023-06-14T05:06:59;16.16;71.57
77693;SHT31;66984;47.404;18.836;2023-06-14T05:08:03;16.18;71.94
77693;SHT31;66984;47.404;18.836;2023-06-14T05:09:07;16.20;71.36
77693;SHT31;66984;47.404;18.836;2023-06-14T05:10:10;16.22;71.44
77693;SHT31;66984;47.404;18.836;2023-06-14T05:11:20;16.27;71.38
77693;SHT31;66984;47.404;18.836;2023-06-14T05:12:23;16.31;71.45
77693;SHT31;66984;47.404;18.836;2023-06-14T05:13:26;16.35;71.34
77693;SHT31;66984;47.404;18.836;2023-06-14T05:14:30;16.40;70.65
77693;SHT31;66984;47.404;18.836;2023-06-14T05:15:33;16.42;70.80
77693;SHT31;66984;47.404;18.836;2023-06-14T05:16:42;16.45;70.88
77693;SHT31;66984;47.404;18.836;2023-06-14T05:17:46;16.49;70.79
77693;SHT31;66984;47.404;18.836;2023-06-14T05:18:55;16.49;70.65
77693;SHT31;66984;47.404;18.836;2023-06-14T05:19:59;16.54;70.58
77693;SHT31;66984;47.404;18.836;2023-06-14T05:21:02;16.58;70.53
77693;SHT31;66984;47.404;18.836;2023-06-14T05:22:13;16.61;70.72
77693;SHT31;66984;47.404;18.836;2023-06-14T05:23:16;16.64;70.59
77693;SHT31;66984;47.404;18.836;2023-06-14T05:24:19;16.64;70.16
77693;SHT31;66984;47.404;18.836;2023-06-14T05:25:22;16.68;70.52
77693;SHT31;66984;47.404;18.836;2023-06-14T05:26:26;16.71;70.45
77693;SHT31;66984;47.404;18.836;2023-06-14T05:27:37;16.72;70.22
77693;SHT31;66984;47.404;18.836;2023-06-14T05:28:40;16.73;69.93
77693;SHT31;66984;47.404;18.836;2023-06-14T05:29:43;16.73;69.76
77693;SHT31;66984;47.404;18.836;2023-06-14T05:30:46;16.80;70.16
77693;SHT31;66984;47.404;18.836;2023-06-14T05:31:49;16.76;70.82
77693;SHT31;66984;47.404;18.836;2023-06-14T05:32:59;16.83;70.18
77693;SHT31;66984;47.404;18.836;2023-06-14T05:34:02;16.88;69.81
77693;SHT31;66984;47.404;18.836;2023-06-14T05:35:05;16.89;69.85
77693;SHT31;66984;47.404;18.836;2023-06-14T05:36:08;16.90;69.47
77693;SHT31;66984;47.404;18.836;2023-06-14T05:37:11;16.95;69.72
77693;SHT31;66984;47.404;18.836;2023-06-14T05:38:21;16.96;70.11
77693;SHT31;66984;47.404;18.836;2023-06-14T05:39:24;17.00;69.94
77693;SHT31;66984;47.404;18.836;2023-06-14T05:40:27;17.02;69.06
77693;SHT31;66984;47.404;18.836;2023-06-14T05:41:30;17.06;69.16
77693;SHT31;66984;47.404;18.836;2023-06-14T05:42:33;17.05;68.75
77693;SHT31;66984;47.404;18.836;2023-06-14T05:43:43;17.03;68.85
77693;SHT31;66984;47.404;18.836;2023-06-14T05:44:46;17.07;69.33
77693;SHT31;66984;47.404;18.836;2023-06-14T05:45:49;17.10;69.06
77693;SHT31;66984;47.404;18.836;2023-06-14T05:46:52;17.09;68.85
77693;SHT31;66984;47.404;18.836;2023-06-14T05:47:55;17.12;69.28
77693;SHT31;66984;47.404;18.836;2023-06-14T05:49:06;17.15;69.52
77693;SHT31;66984;47.404;18.836;2023-06-14T05:50:09;17.23;69.34
77693;SHT31;66984;47.404;18.836;2023-06-14T05:51:12;17.27;69.36
77693;SHT31;66984;47.404;18.836;2023-06-14T05:52:15;17.28;69.27
77693;SHT31;66984;47.404;18.836;2023-06-14T05:53:18;17.30;68.76
77693;SHT31;66984;47.404;18.836;2023-06-14T05:54:27;17.30;68.69
77693;SHT31;66984;47.404;18.836;2023-06-14T05:55:30;17.36;68.56
77693;SHT31;66984;47.404;18.836;2023-06-14T05:56:33;17.37;68.29
77693;SHT31;66984;47.404;18.836;2023-06-14T05:57:37;17.38;69.24
77693;SHT31;66984;47.404;18.836;2023-06-14T05:58:40;17.36;67.93
77693;SHT31;66984;47.404;18.836;2023-06-14T05:59:49;17.38;68.10
77693;SHT31;66984;47.404;18.836;2023-06-14T06:00:53;17.43;68.40
77693;SHT31;66984;47.404;18.836;2023-06-14T06:01:56;17.43;68.17
77693;SHT31;66984;47.404;18.836;2023-06-14T06:03:06;17.46;67.98
77693;SHT31;66984;47.404;18.836;2023-06-14T06:04:23;17.50;67.92
77693;SHT31;66984;47.404;18.836;2023-06-14T06:05:33;17.51;67.54
77693;SHT31;66984;47.404;18.836;2023-06-14T06:06:35;17.53;67.84
77693;SHT31;66984;47.404;18.836;2023-06-14T06:07:39;17.53;68.16
77693;SHT31;66984;47.404;18.836;2023-06-14T06:08:47;17.55;67.86
77693;SHT31;66984;47.404;18.836;2023-06-14T06:09:50;17.57;67.81
77693;SHT31;66984;47.404;18.836;2023-06-14T06:10:59;17.60;67.71
77693;SHT31;66984;47.404;18.836;2023-06-14T06:12:06;17.57;67.69
77693;SHT31;66984;47.404;18.836;2023-06-14T06:13:09;17.58;67.55
77693;SHT31;66984;47.404;18.836;2023-06-14T06:14:12;17.60;67.51
77693;SHT31;66984;47.404;18.836;2023-06-14T06:15:15;17.57;67.39
77693;SHT31;66984;47.404;18.836;2023-06-14T06:16:24;17.61;67.75
77693;SHT31;66984;47.404;18.836;2023-06-14T06:17:27;17.64;67.91
77693;SHT31;66984;47.404;18.836;2023-06-14T06:18:50;17.65;68.03
77693;SHT31;66984;47.404;18.836;2023-06-14T06:19:54;17.70;68.67
77693;SHT31;66984;47.404;18.836;2023-06-14T06:21:04;17.77;68.12
77693;SHT31;66984;47.404;18.836;2023-06-14T06:22:07;17.77;67.11
77693;SHT31;66984;47.404;18.836;2023-06-14T06:23:10;17.81;67.46
77693;SHT31;66984;47.404;18.836;2023-06-14T06:24:13;17.82;67.25
77693;SHT31;66984;47.404;18.836;2023-06-14T06:25:23;17.89;67.35
77693;SHT31;66984;47.404;18.836;2023-06-14T06:26:28;17.95;67.71
77693;SHT31;66984;47.404;18.836;2023-06-14T06:27:31;18.05;68.00
77693;SHT31;66984;47.404;18.836;2023-06-14T06:28:34;18.09;68.00
77693;SHT31;66984;47.404;18.836;2023-06-14T06:29:37;18.16;68.03
77693;SHT31;66984;47.404;18.836;2023-06-14T06:30:46;18.26;67.82
77693;SHT31;66984;47.404;18.836;2023-06-14T06:31:49;18.34;67.46
77693;SHT31;66984;47.404;18.836;2023-06-14T06:32:52;18.32;66.55
77693;SHT31;66984;47.404;18.836;2023-06-14T06:33:56;18.32;66.63
77693;SHT31;66984;47.404;18.836;2023-06-14T06:34:59;18.37;66.14
77693;SHT31;66984;47.404;18.836;2023-06-14T06:36:09;18.37;66.31
77693;SHT31;66984;47.404;18.836;2023-06-14T06:37:13;18.36;65.75
77693;SHT31;66984;47.404;18.836;2023-06-14T06:38:16;18.40;65.24
77693;SHT31;66984;47.404;18.836;2023-06-14T06:39:21;18.40;65.56
77693;SHT31;66984;47.404;18.836;2023-06-14T06:40:24;18.47;65.71
77693;SHT31;66984;47.404;18.836;2023-06-14T06:41:34;18.50;65.68
77693;SHT31;66984;47.404;18.836;2023-06-14T06:42:37;18.54;66.46
77693;SHT31;66984;47.404;18.836;2023-06-14T06:43:40;18.60;66.14
77693;SHT31;66984;47.404;18.836;2023-06-14T06:44:43;18.60;66.72
77693;SHT31;66984;47.404;18.836;2023-06-14T06:45:46;18.61;65.80
77693;SHT31;66984;47.404;18.836;2023-06-14T06:46:57;18.61;64.80
77693;SHT31;66984;47.404;18.836;2023-06-14T06:48:00;18.65;65.12
77693;SHT31;66984;47.404;18.836;2023-06-14T06:49:03;18.64;65.35
77693;SHT31;66984;47.404;18.836;2023-06-14T06:50:06;18.67;65.54
77693;SHT31;66984;47.404;18.836;2023-06-14T06:51:10;18.71;66.10
77693;SHT31;66984;47.404;18.836;2023-06-14T06:52:21;18.78;66.42
77693;SHT31;66984;47.404;18.836;2023-06-14T06:53:30;18.80;66.69
77693;SHT31;66984;47.404;18.836;2023-06-14T06:54:43;18.87;66.12
77693;SHT31;66984;47.404;18.836;2023-06-14T06:55:46;18.92;66.21